Terminal Aerodrome Forecast
Issued by NWS Shreveport, LA

Home | Current Version | Previous Version | Text Only | Print | Product List | Glossary On
Versions: 1 2 3 4 5 6 7 8 9 10 11 12 13 14 15 16 17 18 19 20 21
820
FTUS44 KSHV 240532
TAFELD
TAF
KELD 240532Z 2406/2506 30013G23KT 3SM RA BR BKN015
      TEMPO 2406/2408 30008KT 6SM BR BKN007
     FM240800 29005KT P6SM SCT015 SCT050
     FM241500 29015G25KT P6SM SCT015=

USA.gov is the U.S. government's official web portal to all federal, state and local government web resources and services.